Terminal Aerodrome Forecast
Issued by NWS Jackson, MS

Home | Current Version | Previous Version | Text Only | Print | Product List | Glossary On
Versions: 1 2 3 4 5 6 7 8 9 10 11 12 13 14 15 16
000
FTUS44 KJAN 021137
TAFGWO
TAF
KGWO 021137Z 0212/0312 VRB03KT P6SM FEW010 SCT050
     FM021600 03008KT P6SM -SHRA VCTS SCT025 OVC050CB
     FM021900 34010KT 4SM -SHRA VCTS OVC025CB
     FM022300 36010KT P6SM -RA OVC035
     FM030600 36007KT P6SM BKN050=

USA.gov is the U.S. government's official web portal to all federal, state and local government web resources and services.